createdAt,value
2024-05-09T00:00:06.439Z,39.82
2024-05-09T00:02:54.643Z,39.51
2024-05-09T00:05:41.884Z,39.41
2024-05-09T00:08:29.701Z,39.88
2024-05-09T00:11:20.815Z,39.61
2024-05-09T00:14:09.456Z,39.67
2024-05-09T00:16:55.661Z,39.75
2024-05-09T00:19:44.943Z,39.70
2024-05-09T00:22:32.683Z,39.84
2024-05-09T00:25:23.523Z,39.82
2024-05-09T00:28:09.914Z,40.05
2024-05-09T00:30:56.300Z,39.82
2024-05-09T00:33:42.932Z,39.75
2024-05-09T00:36:29.729Z,39.73
2024-05-09T00:39:16.303Z,39.76
2024-05-09T00:42:02.586Z,39.82
2024-05-09T00:44:49.275Z,39.98
2024-05-09T00:47:36.283Z,39.64
2024-05-09T00:50:29.937Z,39.74
2024-05-09T00:53:22.446Z,39.90
2024-05-09T00:56:10.002Z,39.94
2024-05-09T00:58:56.579Z,39.81
2024-05-09T01:01:48.782Z,39.79
2024-05-09T01:04:35.516Z,39.78
2024-05-09T01:07:22.044Z,39.84
2024-05-09T01:10:14.222Z,39.91
2024-05-09T01:13:07.925Z,39.83
2024-05-09T01:15:55.698Z,39.88
2024-05-09T01:18:42.081Z,39.74
2024-05-09T01:21:28.445Z,40.10
2024-05-09T01:24:14.924Z,40.07
2024-05-09T01:27:01.190Z,39.91
2024-05-09T01:29:47.518Z,39.87
2024-05-09T01:32:34.008Z,40.00
2024-05-09T01:35:23.868Z,39.87
2024-05-09T01:38:12.920Z,39.94
2024-05-09T01:40:59.793Z,40.08
2024-05-09T01:43:46.233Z,40.15
2024-05-09T01:46:32.415Z,40.15
2024-05-09T01:49:19.142Z,40.22
2024-05-09T01:52:05.747Z,40.28
2024-05-09T01:54:51.998Z,40.44
2024-05-09T01:57:38.423Z,40.39
2024-05-09T02:00:36.944Z,40.49
2024-05-09T02:03:27.103Z,40.46
2024-05-09T02:06:14.123Z,40.52
2024-05-09T02:09:00.415Z,40.71
2024-05-09T02:11:49.110Z,40.68
2024-05-09T02:14:35.546Z,40.83
2024-05-09T02:17:22.651Z,41.00
2024-05-09T02:20:13.242Z,41.01
2024-05-09T02:23:04.230Z,41.10
2024-05-09T02:25:51.144Z,41.02
2024-05-09T02:28:37.466Z,41.01
2024-05-09T02:31:23.706Z,41.19
2024-05-09T02:34:10.183Z,41.10
2024-05-09T02:36:56.572Z,41.30
2024-05-09T02:39:42.712Z,41.22
2024-05-09T02:42:28.904Z,40.99
2024-05-09T02:45:15.227Z,41.47
2024-05-09T02:48:02.138Z,41.59
2024-05-09T02:50:48.898Z,41.66
2024-05-09T02:53:35.373Z,41.47
2024-05-09T02:56:22.607Z,41.76
2024-05-09T02:59:08.781Z,41.70
2024-05-09T03:01:55.310Z,41.57
2024-05-09T03:04:43.042Z,41.57
2024-05-09T03:07:29.351Z,42.04
2024-05-09T03:10:22.262Z,41.72
2024-05-09T03:13:14.950Z,41.84
2024-05-09T03:16:02.517Z,41.95
2024-05-09T03:18:49.004Z,41.93
2024-05-09T03:21:40.274Z,41.76
2024-05-09T03:24:26.398Z,41.81
2024-05-09T03:27:12.704Z,41.88
2024-05-09T03:29:59.096Z,41.73
2024-05-09T03:32:45.542Z,42.06
2024-05-09T03:35:32.040Z,42.16
2024-05-09T03:38:18.722Z,42.24
2024-05-09T03:41:10.786Z,42.31
2024-05-09T03:43:57.067Z,42.10
2024-05-09T03:46:44.583Z,42.33
2024-05-09T03:49:30.732Z,42.26
2024-05-09T03:52:18.092Z,42.42
2024-05-09T03:55:04.390Z,42.52
2024-05-09T03:57:50.904Z,42.58
2024-05-09T04:00:39.415Z,42.58
2024-05-09T04:03:28.208Z,42.57
2024-05-09T04:06:24.519Z,42.84
2024-05-09T04:09:10.753Z,42.39
2024-05-09T04:11:58.708Z,42.70
2024-05-09T04:14:45.093Z,42.69
2024-05-09T04:17:31.719Z,42.58
2024-05-09T04:20:29.090Z,42.89
2024-05-09T04:23:25.481Z,42.53
2024-05-09T04:26:14.148Z,42.83
2024-05-09T04:29:00.608Z,42.77
2024-05-09T04:31:47.149Z,42.56
2024-05-09T04:34:35.401Z,43.01
2024-05-09T04:37:21.656Z,42.69
2024-05-09T04:40:14.187Z,42.82
2024-05-09T04:43:07.658Z,42.96
2024-05-09T04:45:54.292Z,42.74
2024-05-09T04:48:40.503Z,43.05
2024-05-09T04:51:26.667Z,42.73
2024-05-09T04:54:25.792Z,42.55
2024-05-09T04:57:16.809Z,42.99
2024-05-09T05:00:07.243Z,43.24
2024-05-09T05:02:55.889Z,42.93
2024-05-09T05:05:42.415Z,42.88
2024-05-09T05:08:29.774Z,42.88
2024-05-09T05:11:16.684Z,43.05
2024-05-09T05:14:03.297Z,43.43
2024-05-09T05:16:49.571Z,43.35
2024-05-09T05:19:36.076Z,43.20
2024-05-09T05:22:22.152Z,43.14
2024-05-09T05:25:08.520Z,43.14
2024-05-09T05:27:54.818Z,43.28
2024-05-09T05:30:41.887Z,43.52
2024-05-09T05:33:28.507Z,43.36
2024-05-09T05:36:14.751Z,43.52
2024-05-09T05:39:00.954Z,43.15
2024-05-09T05:41:47.407Z,43.32
2024-05-09T05:44:33.936Z,43.27
2024-05-09T05:47:20.204Z,43.35
2024-05-09T05:50:17.598Z,43.35
2024-05-09T05:53:10.728Z,44.41
2024-05-09T05:55:57.595Z,43.18
2024-05-09T05:58:43.833Z,43.10
2024-05-09T06:01:30.191Z,43.48
2024-05-09T06:04:16.589Z,43.16
2024-05-09T06:07:03.143Z,43.17
2024-05-09T06:09:50.463Z,43.31
2024-05-09T06:12:37.508Z,43.42
2024-05-09T06:15:23.493Z,43.34
2024-05-09T06:18:11.678Z,43.18
2024-05-09T06:20:59.390Z,43.43
2024-05-09T06:23:49.841Z,43.91
2024-05-09T06:26:36.283Z,43.53
2024-05-09T06:29:22.650Z,43.38
2024-05-09T06:32:10.003Z,43.56
2024-05-09T06:34:58.627Z,43.63
2024-05-09T06:37:51.698Z,43.83
2024-05-09T06:41:03.723Z,43.38
2024-05-09T06:43:50.387Z,43.19
2024-05-09T06:46:40.291Z,43.54
2024-05-09T06:49:29.324Z,43.63
2024-05-09T06:52:15.401Z,43.24
2024-05-09T06:55:01.886Z,43.33
2024-05-09T06:57:48.307Z,43.34
2024-05-09T07:00:39.255Z,43.44
2024-05-09T07:03:27.971Z,43.43
2024-05-09T07:06:14.265Z,43.38
2024-05-09T07:09:00.579Z,43.65
2024-05-09T07:11:47.090Z,43.38
2024-05-09T07:14:34.747Z,43.38
2024-05-09T07:17:23.614Z,43.50
2024-05-09T07:20:16.575Z,43.08
2024-05-09T07:23:10.903Z,43.14
2024-05-09T07:25:58.313Z,42.89
2024-05-09T07:28:44.681Z,42.94
2024-05-09T07:31:31.541Z,42.77
2024-05-09T07:34:18.157Z,42.96
2024-05-09T07:37:06.356Z,42.89
2024-05-09T07:39:52.368Z,42.71
2024-05-09T07:42:39.005Z,42.59
2024-05-09T07:45:43.039Z,42.62
2024-05-09T07:50:33.283Z,42.39
2024-05-09T07:54:31.250Z,42.39
2024-05-09T07:57:18.542Z,42.12
2024-05-09T08:00:06.528Z,42.03
2024-05-09T08:02:53.247Z,42.06
2024-05-09T08:05:39.364Z,42.01
2024-05-09T08:08:27.161Z,41.76
2024-05-09T08:11:13.626Z,41.27
2024-05-09T08:14:01.970Z,41.30
2024-05-09T08:16:48.249Z,41.20
2024-05-09T08:19:37.791Z,41.02
2024-05-09T08:22:23.965Z,40.83
2024-05-09T08:25:13.440Z,40.87
2024-05-09T08:28:00.320Z,40.66
2024-05-09T08:30:46.925Z,40.50
2024-05-09T08:33:33.803Z,40.49
2024-05-09T08:36:22.345Z,40.19
2024-05-09T08:39:08.765Z,40.02
2024-05-09T08:41:55.220Z,39.98
2024-05-09T08:44:41.556Z,40.17
2024-05-09T08:47:33.020Z,40.06
2024-05-09T08:50:28.957Z,40.04
2024-05-09T08:53:22.385Z,40.40
2024-05-09T08:56:12.454Z,40.53
2024-05-09T08:59:02.124Z,40.36
2024-05-09T09:01:49.954Z,40.42
2024-05-09T09:04:38.748Z,40.29
2024-05-09T09:07:25.947Z,40.25
2024-05-09T09:10:17.827Z,40.14
2024-05-09T09:13:11.419Z,40.30
2024-05-09T09:15:59.388Z,40.03
2024-05-09T09:18:46.529Z,40.21
2024-05-09T09:21:33.222Z,39.66
2024-05-09T09:24:19.311Z,39.77
2024-05-09T09:27:06.591Z,39.63
2024-05-09T09:29:53.282Z,39.46
2024-05-09T09:32:39.556Z,39.25
2024-05-09T09:35:29.065Z,39.22
2024-05-09T09:38:19.045Z,39.29
2024-05-09T09:41:08.718Z,39.49
2024-05-09T09:43:56.262Z,39.15
2024-05-09T09:46:42.539Z,39.26
2024-05-09T09:49:33.823Z,38.97
2024-05-09T09:52:21.995Z,39.09
2024-05-09T09:55:10.177Z,39.02
2024-05-09T09:57:56.780Z,38.74
2024-05-09T10:00:43.568Z,39.00
2024-05-09T10:03:30.620Z,38.90
2024-05-09T10:06:17.986Z,38.70
2024-05-09T10:09:04.432Z,38.83
2024-05-09T10:11:59.389Z,38.56
2024-05-09T10:14:50.445Z,38.94
2024-05-09T10:17:36.709Z,38.78
2024-05-09T10:20:28.151Z,38.53
2024-05-09T10:23:36.359Z,37.87
2024-05-09T10:26:35.278Z,38.46
2024-05-09T10:29:24.128Z,38.07
2024-05-09T10:32:10.783Z,38.04
2024-05-09T10:35:09.558Z,37.37
2024-05-09T10:37:56.383Z,37.41
2024-05-09T10:40:43.568Z,37.58
2024-05-09T10:43:32.029Z,37.83
2024-05-09T10:46:21.720Z,37.75
2024-05-09T10:49:09.340Z,37.21
2024-05-09T10:51:56.021Z,37.04
2024-05-09T10:54:42.381Z,37.24
2024-05-09T10:57:40.926Z,37.16
2024-05-09T11:00:36.392Z,36.86
2024-05-09T11:03:24.315Z,37.20
2024-05-09T11:06:11.966Z,37.40
2024-05-09T11:08:58.627Z,37.36
2024-05-09T11:11:45.138Z,37.35
2024-05-09T11:14:31.523Z,37.43
2024-05-09T11:17:17.942Z,37.17
2024-05-09T11:20:13.326Z,37.71
2024-05-09T11:23:07.215Z,37.24
2024-05-09T11:25:56.028Z,36.97
2024-05-09T11:28:46.758Z,35.96
2024-05-09T11:31:33.398Z,36.67
2024-05-09T11:34:19.769Z,36.87
2024-05-09T11:37:06.213Z,36.60
2024-05-09T11:39:54.057Z,36.35
2024-05-09T11:42:40.626Z,36.33
2024-05-09T11:45:26.948Z,36.18
2024-05-09T11:48:13.393Z,35.77
2024-05-09T11:50:59.621Z,36.24
2024-05-09T11:53:45.795Z,36.18
2024-05-09T11:56:32.381Z,36.01
2024-05-09T11:59:20.115Z,35.95
2024-05-09T12:02:07.830Z,35.54
2024-05-09T12:04:54.169Z,35.17
2024-05-09T12:07:40.697Z,35.55
2024-05-09T12:10:33.099Z,35.05
2024-05-09T12:13:22.130Z,34.81
2024-05-09T12:16:09.441Z,34.60
2024-05-09T12:18:56.306Z,34.41
2024-05-09T12:21:42.778Z,34.33
2024-05-09T12:24:29.217Z,34.08
2024-05-09T12:27:15.666Z,33.95
2024-05-09T12:30:01.721Z,33.04
2024-05-09T12:32:49.733Z,33.01
2024-05-09T12:35:36.427Z,33.27
2024-05-09T12:38:26.235Z,32.87
2024-05-09T12:41:14.316Z,32.58
2024-05-09T12:44:00.809Z,32.28
2024-05-09T12:46:47.518Z,32.14
2024-05-09T12:49:33.913Z,32.14
2024-05-09T12:52:20.468Z,31.32
2024-05-09T12:55:07.066Z,30.94
2024-05-09T12:57:54.914Z,31.18
2024-05-09T13:00:41.638Z,31.23
2024-05-09T13:03:28.217Z,31.53
2024-05-09T13:06:14.439Z,30.65
2024-05-09T13:09:00.888Z,30.80
2024-05-09T13:11:47.236Z,30.62
2024-05-09T13:14:34.663Z,30.21
2024-05-09T13:17:25.275Z,29.55
2024-05-09T13:20:18.660Z,28.97
2024-05-09T13:23:11.994Z,28.80
2024-05-09T13:25:58.327Z,28.69
2024-05-09T13:28:45.179Z,28.83
2024-05-09T13:31:31.759Z,28.81
2024-05-09T13:34:18.018Z,28.52
2024-05-09T13:37:04.611Z,28.33
2024-05-09T13:39:50.921Z,28.29
2024-05-09T13:42:37.230Z,27.68
2024-05-09T13:45:23.563Z,27.42
2024-05-09T13:48:10.546Z,27.03
2024-05-09T13:50:57.636Z,26.72
2024-05-09T13:53:43.746Z,26.31
2024-05-09T13:56:29.923Z,25.95
2024-05-09T13:59:16.329Z,25.25
2024-05-09T14:02:02.745Z,24.59
2024-05-09T14:04:49.505Z,24.75
2024-05-09T14:07:36.231Z,24.97
2024-05-09T14:10:28.661Z,24.96
2024-05-09T14:13:17.803Z,24.62
2024-05-09T14:16:04.602Z,24.17
2024-05-09T14:18:51.200Z,24.02
2024-05-09T14:21:37.756Z,23.25
2024-05-09T14:24:24.294Z,22.66
2024-05-09T14:27:10.628Z,22.86
2024-05-09T14:29:58.710Z,22.62
2024-05-09T14:32:44.871Z,22.05
2024-05-09T14:35:31.222Z,21.95
2024-05-09T14:38:17.504Z,21.79
2024-05-09T14:41:04.167Z,21.95
2024-05-09T14:43:50.893Z,21.92
2024-05-09T14:46:37.456Z,21.86
2024-05-09T14:49:23.969Z,21.81
2024-05-09T14:52:10.427Z,21.82
2024-05-09T14:57:46.032Z,21.82
2024-05-09T15:00:35.981Z,21.74
2024-05-09T15:03:23.761Z,22.04
2024-05-09T15:06:10.281Z,22.28
2024-05-09T15:08:57.858Z,22.17
2024-05-09T15:11:44.375Z,21.83
2024-05-09T15:14:36.030Z,21.59
2024-05-09T15:17:22.656Z,22.04
2024-05-09T15:20:26.802Z,22.51
2024-05-09T15:23:18.518Z,23.00
2024-05-09T15:26:05.290Z,23.41
2024-05-09T15:28:51.258Z,23.70
2024-05-09T15:31:37.579Z,23.69
2024-05-09T15:34:23.922Z,23.77
2024-05-09T15:37:10.366Z,23.95
2024-05-09T15:39:56.616Z,24.33
2024-05-09T15:42:43.347Z,24.71
2024-05-09T15:45:30.928Z,25.10
2024-05-09T15:48:17.937Z,25.48
2024-05-09T15:51:04.499Z,25.67
2024-05-09T15:53:51.018Z,26.34
2024-05-09T15:56:38.463Z,26.72
2024-05-09T15:59:24.453Z,26.60
2024-05-09T16:02:12.334Z,27.41
2024-05-09T16:04:59.055Z,27.50
2024-05-09T16:07:45.464Z,27.51
2024-05-09T16:10:34.585Z,27.64
2024-05-09T16:13:22.039Z,28.48
2024-05-09T16:19:13.797Z,28.39
2024-05-09T16:22:00.702Z,28.62
2024-05-09T16:24:47.616Z,28.67
2024-05-09T16:27:34.041Z,28.96
2024-05-09T16:30:27.882Z,29.11
2024-05-09T16:33:24.099Z,29.29
2024-05-09T16:36:10.587Z,29.67
2024-05-09T16:38:58.267Z,29.78
2024-05-09T16:41:44.481Z,29.91
2024-05-09T16:44:32.426Z,30.08
2024-05-09T16:47:19.814Z,29.78
2024-05-09T16:50:08.506Z,30.35
2024-05-09T16:52:55.105Z,30.39
2024-05-09T16:55:41.671Z,30.56
2024-05-09T16:58:28.239Z,30.64
2024-05-09T17:01:17.908Z,30.58
2024-05-09T17:04:04.766Z,30.81
2024-05-09T17:06:51.440Z,30.54
2024-05-09T17:09:37.623Z,30.87
2024-05-09T17:12:26.097Z,30.62
2024-05-09T17:15:12.542Z,30.84
2024-05-09T17:17:59.130Z,30.98
2024-05-09T17:20:50.464Z,31.43
2024-05-09T17:23:37.121Z,31.18
2024-05-09T17:26:23.864Z,31.22
2024-05-09T17:29:12.483Z,31.38
2024-05-09T17:31:59.243Z,31.31
2024-05-09T17:34:45.417Z,31.21
2024-05-09T17:37:31.831Z,31.58
2024-05-09T17:40:27.118Z,31.66
2024-05-09T17:43:17.766Z,31.42
2024-05-09T17:46:04.599Z,31.57
2024-05-09T17:48:51.104Z,32.09
2024-05-09T17:51:37.643Z,32.25
2024-05-09T17:54:24.969Z,32.18
2024-05-09T17:57:12.945Z,32.28
2024-05-09T18:00:00.715Z,32.02
2024-05-09T18:02:48.826Z,32.09
2024-05-09T18:05:37.664Z,32.57
2024-05-09T18:08:25.979Z,32.38
2024-05-09T18:11:13.151Z,32.57
2024-05-09T18:13:59.530Z,32.89
2024-05-09T18:16:46.180Z,32.89
2024-05-09T18:19:33.117Z,32.69
2024-05-09T18:22:19.877Z,32.96
2024-05-09T18:25:07.051Z,33.18
2024-05-09T18:27:53.400Z,33.08
2024-05-09T18:30:41.378Z,33.18
2024-05-09T18:33:27.812Z,33.04
2024-05-09T18:36:14.173Z,33.56
2024-05-09T18:39:00.874Z,33.38
2024-05-09T18:41:47.679Z,33.46
2024-05-09T18:44:34.214Z,33.60
2024-05-09T18:47:20.689Z,33.64
2024-05-09T18:50:14.308Z,33.40
2024-05-09T18:53:06.537Z,33.84
2024-05-09T18:55:53.314Z,33.87
2024-05-09T18:58:40.117Z,33.64
2024-05-09T19:01:26.789Z,34.27
2024-05-09T19:04:13.668Z,34.24
2024-05-09T19:07:04.420Z,34.06
2024-05-09T19:09:51.098Z,34.63
2024-05-09T19:12:37.540Z,34.13
2024-05-09T19:15:23.743Z,34.21
2024-05-09T19:18:11.080Z,34.41
2024-05-09T19:20:57.783Z,34.57
2024-05-09T19:23:50.570Z,34.47
2024-05-09T19:26:38.436Z,34.55
2024-05-09T19:29:25.200Z,34.61
2024-05-09T19:32:11.523Z,34.89
2024-05-09T19:34:57.690Z,34.58
2024-05-09T19:37:45.164Z,34.32
2024-05-09T19:40:33.631Z,34.86
2024-05-09T19:43:21.602Z,34.76
2024-05-09T19:46:08.098Z,35.06
2024-05-09T19:48:55.884Z,35.02
2024-05-09T19:51:42.572Z,34.97
2024-05-09T19:54:29.890Z,35.30
2024-05-09T19:57:19.676Z,35.56
2024-05-09T20:00:12.113Z,35.30
2024-05-09T20:03:01.421Z,35.67
2024-05-09T20:05:48.584Z,35.62
2024-05-09T20:08:36.605Z,35.81
2024-05-09T20:11:22.661Z,35.62
2024-05-09T20:14:09.077Z,35.66
2024-05-09T20:16:56.917Z,35.79
2024-05-09T20:19:44.722Z,36.03
2024-05-09T20:22:31.277Z,35.90
2024-05-09T20:25:18.005Z,35.99
2024-05-09T20:28:04.956Z,35.86
2024-05-09T20:30:52.952Z,36.06
2024-05-09T20:33:39.943Z,36.08
2024-05-09T20:36:29.356Z,36.19
2024-05-09T20:39:15.678Z,36.14
2024-05-09T20:42:03.191Z,36.37
2024-05-09T20:44:49.590Z,36.45
2024-05-09T20:47:38.856Z,36.14
2024-05-09T20:50:35.765Z,36.00
2024-05-09T20:53:27.388Z,36.26
2024-05-09T20:56:14.199Z,36.19
2024-05-09T20:59:00.596Z,36.53
2024-05-09T21:01:49.280Z,36.06
2024-05-09T21:04:35.732Z,36.49
2024-05-09T21:07:23.556Z,36.18
2024-05-09T21:10:15.659Z,36.51
2024-05-09T21:13:07.291Z,36.64
2024-05-09T21:15:54.341Z,36.96
2024-05-09T21:18:41.108Z,36.56
2024-05-09T21:21:27.756Z,36.56
2024-05-09T21:24:14.489Z,36.54
2024-05-09T21:27:00.928Z,36.89
2024-05-09T21:29:47.418Z,36.64
2024-05-09T21:32:35.204Z,36.61
2024-05-09T21:35:21.525Z,36.63
2024-05-09T21:38:08.294Z,37.15
2024-05-09T21:40:54.901Z,37.02
2024-05-09T21:43:41.715Z,36.87
2024-05-09T21:46:28.193Z,37.27
2024-05-09T21:49:17.482Z,37.07
2024-05-09T21:52:04.003Z,37.10
2024-05-09T21:54:50.410Z,36.81
2024-05-09T21:57:36.824Z,36.82
2024-05-09T22:00:29.236Z,36.80
2024-05-09T22:03:21.963Z,37.10
2024-05-09T22:06:09.208Z,36.73
2024-05-09T22:08:55.592Z,37.11
2024-05-09T22:11:42.977Z,36.83
2024-05-09T22:14:29.314Z,37.35
2024-05-09T22:17:15.987Z,36.97
2024-05-09T22:20:02.026Z,37.18
2024-05-09T22:22:48.499Z,36.81
2024-05-09T22:25:34.875Z,36.99
2024-05-09T22:28:21.219Z,37.23
2024-05-09T22:31:09.580Z,37.07
2024-05-09T22:33:56.146Z,37.45
2024-05-09T22:36:42.743Z,37.33
2024-05-09T22:39:29.123Z,37.41
2024-05-09T22:42:15.348Z,37.59
2024-05-09T22:45:01.769Z,37.18
2024-05-09T22:47:48.365Z,37.39
2024-05-09T22:50:34.763Z,37.47
2024-05-09T22:53:24.270Z,37.50
2024-05-09T22:56:11.771Z,37.29
2024-05-09T22:58:58.621Z,37.40
2024-05-09T23:01:51.655Z,37.18
2024-05-09T23:04:39.154Z,37.36
2024-05-09T23:07:25.618Z,37.28
2024-05-09T23:10:17.346Z,37.27
2024-05-09T23:13:11.819Z,37.54
2024-05-09T23:15:59.280Z,37.28
2024-05-09T23:18:45.516Z,37.31
2024-05-09T23:21:31.653Z,37.78
2024-05-09T23:24:18.042Z,37.40
2024-05-09T23:27:04.790Z,37.51
2024-05-09T23:29:51.010Z,37.66
2024-05-09T23:32:37.473Z,37.70
2024-05-09T23:35:26.045Z,37.17
2024-05-09T23:38:12.654Z,37.43
2024-05-09T23:40:59.460Z,37.44
2024-05-09T23:43:45.812Z,37.64
2024-05-09T23:46:32.411Z,37.29
2024-05-09T23:49:18.764Z,37.66
2024-05-09T23:52:06.314Z,37.67
2024-05-09T23:54:52.940Z,37.49
2024-05-09T23:57:39.369Z,37.64
